Impacts TAF Board INFO
FOR SITUATIONAL AWARENESS. NOT TO BE USED FOR FLIGHT PLANNING PURPOSES.
IDs:

KTPA - Tampa Intl Arpt, FL, US

Issued at 2324 UTC 18 Nov 2017
Updated at 0104 UTC 19 Nov 2017
Potential Impact None Slight Moderate High
Time0053Z 19/02Z 19/03Z 19/04Z 19/05Z 19/06Z 19/07Z 19/08Z 19/09Z 19/10Z 19/11Z 19/12Z 19/13Z 19/14Z>>
Type OBS PRVL PRVL PRVL PRVL PRVL PRVL PRVL PRVL PRVL PRVL PRVL PRVL PRVL
VIS 10 >6 >6 >6 >6 >6 >6 >6 >6 >6 >6 >6 >6 >6
CIG -- -- -- -- -- -- -- -- -- -- -- -- -- --
Cover CLR SKC SKC SKC SKC SKC SKC SKC SKC SKC SKC SKC SKC SKC
FltCat VFR VFR VFR VFR VFR VFR VFR VFR VFR VFR VFR VFR VFR VFR
WX -- -- -- -- -- -- -- -- -- -- -- -- -- --
WDir 260 250 250 250 250 250 250 250 250 250 250 250 250 250
WSpd 4 5 5 5 5 5 5 5 5 5 5 5 5 5
WGst -- -- -- -- -- -- -- -- -- -- -- -- -- --

Raw TAF
KTPA 182324Z 1900/2006 25005KT P6SM SKC
  FM191500 23009KT P6SM VCSH BKN040
  FM191700 27009KT P6SM VCSH SCT020 BKN035
  FM192000 31010KT P6SM SCT005 BKN045
  FM192200 33009KT P6SM FEW080 SCT120


Raw METAR
KTPA 190053Z 26004KT 10SM CLR 22/16 A2997 RMK AO2 SLP148 T02170156
KTPA 182353Z 25005KT 10SM CLR 22/16 A2996 RMK AO2 SLP146 T02170161 10261 20217 53007
KTPA 182253Z 27004KT 10SM CLR 23/14 A2996 RMK AO2 SLP143 T02330144

METAR Board
Radar Display
Forecast Discussion

FOR SITUATIONAL AWARENESS. NOT TO BE USED FOR FLIGHT PLANNING PURPOSES.